Time;durP1;ratioP1;P1;durP2;ratioP2;P2;SDS_P1;SDS_P2;PMS_P1;PMS_P2;Temp;Humidity;BMP_temperature;BMP_pressure;BME280_temperature;BME280_humidity;BME280_pressure;Samples;Min_cycle;Max_cycle;Signal;HPM_P1;HPM_P2
2023/01/19 00:00:09;;;;;;;7.60;4.68;;;10.90;89.80;;;;;;5059276;28;20028;-56
2023/01/19 00:02:35;;;;;;;11.43;5.35;;;10.80;89.90;;;;;;5066869;28;20433;-58
2023/01/19 00:05:02;;;;;;;10.57;5.65;;;10.80;90.00;;;;;;5053763;28;20024;-57
2023/01/19 00:07:30;;;;;;;16.95;6.53;;;10.80;90.10;;;;;;5058512;28;20104;-58
2023/01/19 00:09:55;;;;;;;9.32;5.93;;;10.80;90.20;;;;;;5056778;28;20063;-57
2023/01/19 00:12:21;;;;;;;13.13;6.30;;;10.80;90.20;;;;;;5055239;28;20037;-61
2023/01/19 00:14:47;;;;;;;10.75;6.03;;;10.80;90.20;;;;;;5061360;28;20025;-60
2023/01/19 00:17:12;;;;;;;11.50;5.50;;;10.80;90.20;;;;;;5056341;28;20115;-61
2023/01/19 00:19:38;;;;;;;11.85;5.20;;;10.80;90.20;;;;;;5055851;28;20090;-61
2023/01/19 00:22:04;;;;;;;8.13;5.18;;;10.80;90.20;;;;;;5054087;28;20033;-58
2023/01/19 00:24:33;;;;;;;7.95;5.03;;;10.80;90.30;;;;;;5051346;28;20036;-58
2023/01/19 00:27:00;;;;;;;8.55;4.85;;;10.80;90.30;;;;;;5053817;28;20109;-60
2023/01/19 00:29:29;;;;;;;7.72;4.95;;;10.80;90.40;;;;;;5052688;28;20025;-60
2023/01/19 00:31:55;;;;;;;10.38;6.68;;;10.90;90.40;;;;;;5053558;28;20438;-59
2023/01/19 00:34:21;;;;;;;9.68;5.25;;;10.90;90.30;;;;;;5054866;28;20036;-60
2023/01/19 00:36:46;;;;;;;9.65;5.80;;;10.90;89.20;;;;;;5052085;28;20033;-55
2023/01/19 00:39:12;;;;;;;10.57;5.70;;;10.80;87.80;;;;;;5053510;28;20452;-55
2023/01/19 00:44:22;;;;;;;7.80;4.75;;;10.60;86.90;;;;;;5047893;28;20107;-57
2023/01/19 00:46:47;;;;;;;7.60;5.00;;;10.60;86.70;;;;;;5049288;28;20041;-57
2023/01/19 00:49:13;;;;;;;8.65;4.88;;;10.50;86.80;;;;;;5055292;28;20047;-57
2023/01/19 00:51:38;;;;;;;8.10;4.95;;;10.40;86.90;;;;;;5059612;28;20452;-57
2023/01/19 00:54:04;;;;;;;7.50;4.63;;;10.40;86.60;;;;;;5060236;28;20064;-58
2023/01/19 00:56:31;;;;;;;10.05;6.03;;;10.20;86.70;;;;;;5049915;28;20112;-57
2023/01/19 00:58:56;;;;;;;9.65;6.00;;;10.10;86.80;;;;;;5060095;28;20044;-57
2023/01/19 01:01:22;;;;;;;13.10;6.93;;;10.00;87.20;;;;;;5055073;28;20494;-56
2023/01/19 01:03:47;;;;;;;17.52;6.68;;;10.00;88.00;;;;;;5053283;28;20417;-57
2023/01/19 01:06:13;;;;;;;12.05;6.90;;;10.00;88.90;;;;;;5063138;28;20028;-55
2023/01/19 01:08:39;;;;;;;14.05;7.32;;;10.00;88.30;;;;;;5049386;28;20072;-57
2023/01/19 01:11:04;;;;;;;19.30;8.98;;;10.00;88.40;;;;;;5058110;28;20552;-57
2023/01/19 01:13:30;;;;;;;16.98;7.60;;;10.00;88.70;;;;;;5056621;28;20123;-57
2023/01/19 01:15:56;;;;;;;13.30;7.35;;;10.00;89.10;;;;;;5058334;28;20045;-55
2023/01/19 01:18:22;;;;;;;9.00;5.97;;;10.10;89.60;;;;;;5056725;28;20166;-57
2023/01/19 01:20:48;;;;;;;12.65;6.85;;;10.10;89.80;;;;;;5056680;28;20485;-56
2023/01/19 01:23:14;;;;;;;8.50;5.25;;;10.10;89.80;;;;;;5046643;28;20033;-55
2023/01/19 01:25:41;;;;;;;8.85;5.60;;;10.20;89.80;;;;;;5051112;28;20059;-56
2023/01/19 01:28:08;;;;;;;10.18;5.28;;;10.20;89.90;;;;;;5061240;28;20467;-56
2023/01/19 01:30:38;;;;;;;8.63;5.30;;;10.30;89.90;;;;;;5055930;28;20292;-57
2023/01/19 01:33:04;;;;;;;10.20;5.30;;;10.30;89.90;;;;;;5053659;28;20394;-57
2023/01/19 01:35:32;;;;;;;10.05;6.32;;;10.20;90.10;;;;;;5061486;28;20124;-57
2023/01/19 01:37:58;;;;;;;13.40;6.03;;;10.20;90.30;;;;;;5063139;28;20386;-56
2023/01/19 01:40:24;;;;;;;11.25;5.85;;;10.20;90.50;;;;;;5054995;28;20075;-60
2023/01/19 01:42:49;;;;;;;13.30;6.80;;;10.30;90.50;;;;;;5051653;28;20037;-61
2023/01/19 01:45:21;;;;;;;11.38;7.07;;;10.30;90.40;;;;;;5061869;28;20383;-54
2023/01/19 01:47:48;;;;;;;14.27;8.38;;;10.40;90.20;;;;;;5062027;28;20464;-54
2023/01/19 01:50:21;;;;;;;12.00;7.88;;;10.40;90.00;;;;;;5038616;28;20069;-51
2023/01/19 01:53:10;;;;;;;10.65;6.97;;;10.30;89.70;;;;;;5058707;28;20086;-52
2023/01/19 01:55:45;;;;;;;13.50;6.70;;;10.30;89.70;;;;;;5053401;28;20029;-62
2023/01/19 01:58:12;;;;;;;8.35;5.60;;;10.30;90.00;;;;;;5058136;28;20048;-61
2023/01/19 02:03:25;;;;;;;11.73;6.18;;;10.40;89.90;;;;;;5054671;28;20529;-57
2023/01/19 02:05:58;;;;;;;11.23;6.68;;;10.40;89.30;;;;;;5057360;28;20032;-52
2023/01/19 02:14:17;;;;;;;12.32;7.03;;;10.30;87.50;;;;;;5045320;28;20141;-57
2023/01/19 02:16:43;;;;;;;9.63;5.93;;;10.20;87.20;;;;;;5054971;28;20029;-61
2023/01/19 02:19:15;;;;;;;9.95;7.10;;;10.10;87.10;;;;;;5047259;28;20040;-61
2023/01/19 02:22:02;;;;;;;;;;;10.10;87.10;;;;;;5059854;28;20029;-51
2023/01/19 02:24:28;;;;;;;8.75;6.20;;;10.00;86.50;;;;;;5051324;28;20000;-54
2023/01/19 02:26:55;;;;;;;9.65;5.78;;;9.90;87.00;;;;;;5056022;28;20033;-61
2023/01/19 02:29:24;;;;;;;12.07;7.28;;;9.80;87.30;;;;;;5058713;28;20044;-60
2023/01/19 02:31:51;;;;;;;9.85;6.70;;;9.80;88.20;;;;;;5057280;28;20041;-57
2023/01/19 02:34:19;;;;;;;11.10;7.90;;;9.70;88.20;;;;;;5048767;28;20460;-58
2023/01/19 02:36:56;;;;;;;13.85;8.20;;;9.70;87.60;;;;;;5055447;28;20044;-58
2023/01/19 02:39:29;;;;;;;12.68;7.30;;;9.70;87.10;;;;;;5050597;28;20033;-58
2023/01/19 02:42:02;;;;;;;11.75;7.30;;;9.70;86.90;;;;;;5054427;28;20124;-56
2023/01/19 02:44:29;;;;;;;10.48;7.30;;;9.70;87.00;;;;;;5056544;28;20466;-58
2023/01/19 02:46:55;;;;;;;10.65;6.75;;;9.60;87.20;;;;;;5058839;28;20044;-59
2023/01/19 02:49:21;;;;;;;10.80;6.80;;;9.60;87.30;;;;;;5045997;28;20036;-61
2023/01/19 02:51:47;;;;;;;11.38;6.30;;;9.60;87.00;;;;;;5042428;28;20032;-57
2023/01/19 02:54:27;;;;;;;8.50;5.90;;;9.60;86.50;;;;;;5066328;28;20383;-58
2023/01/19 02:57:11;;;;;;;9.65;5.70;;;9.60;86.30;;;;;;5048088;28;20037;-61
2023/01/19 02:59:51;;;;;;;10.50;7.32;;;9.60;85.90;;;;;;5054481;28;20032;-60
2023/01/19 03:02:42;;;;;;;9.73;6.13;;;9.60;85.90;;;;;;5062422;28;20037;-60
2023/01/19 03:05:26;;;;;;;6.55;5.70;;;9.60;86.30;;;;;;5058225;28;20048;-60
2023/01/19 03:07:58;;;;;;;7.18;4.65;;;9.60;85.50;;;;;;5053987;28;20128;-60
2023/01/19 03:11:00;;;;;;;8.75;5.03;;;9.60;84.80;;;;;;5056880;28;20037;-58
2023/01/19 03:14:01;;;;;;;5.93;4.35;;;9.50;84.80;;;;;;5054029;28;20029;-58
2023/01/19 03:16:44;;;;;;;13.43;7.47;;;9.40;84.90;;;;;;5044614;28;20044;-58
2023/01/19 03:19:21;;;;;;;10.48;7.22;;;9.40;84.70;;;;;;5057523;28;20041;-58
2023/01/19 03:21:53;;;;;;;10.40;7.13;;;9.30;84.70;;;;;;5049691;28;20025;-58
2023/01/19 03:24:21;;;;;;;9.93;6.20;;;9.30;85.10;;;;;;5060945;28;20032;-58
2023/01/19 03:26:56;;;;;;;18.52;9.55;;;9.20;85.70;;;;;;5056253;28;20035;-58
2023/01/19 03:29:26;;;;;;;25.35;12.40;;;9.20;86.10;;;;;;5061279;28;20037;-58
2023/01/19 03:31:54;;;;;;;15.15;10.18;;;9.20;87.00;;;;;;5056866;28;20509;-58
2023/01/19 03:34:22;;;;;;;14.25;8.60;;;9.30;87.60;;;;;;5052046;28;20037;-57
2023/01/19 03:36:56;;;;;;;8.25;6.15;;;9.30;87.60;;;;;;5060990;28;20082;-60
2023/01/19 03:39:24;;;;;;;16.00;9.95;;;9.40;87.10;;;;;;5062141;28;20042;-60
2023/01/19 03:42:04;;;;;;;15.13;9.55;;;9.40;87.10;;;;;;5057240;28;20025;-58
2023/01/19 03:44:33;;;;;;;14.45;8.95;;;9.40;87.20;;;;;;5049860;28;20045;-57
2023/01/19 03:46:59;;;;;;;16.65;11.25;;;9.40;87.60;;;;;;5060799;28;20106;-58
2023/01/19 03:49:25;;;;;;;16.67;10.40;;;9.40;87.90;;;;;;5063632;28;20135;-57
2023/01/19 03:51:54;;;;;;;16.25;11.48;;;9.40;87.90;;;;;;5068600;28;20126;-58
2023/01/19 03:54:20;;;;;;;15.50;9.68;;;9.40;87.90;;;;;;5060563;28;20037;-58
2023/01/19 03:56:45;;;;;;;13.65;9.55;;;9.40;88.40;;;;;;5057616;28;20098;-57
2023/01/19 03:59:11;;;;;;;12.80;8.30;;;9.30;88.80;;;;;;5054294;28;20032;-57
2023/01/19 04:01:37;;;;;;;11.38;8.00;;;9.40;89.10;;;;;;5053579;28;20025;-62
2023/01/19 04:04:02;;;;;;;9.13;6.65;;;9.40;89.50;;;;;;5052309;28;20025;-62
2023/01/19 04:06:28;;;;;;;10.65;7.55;;;9.40;88.80;;;;;;5063563;28;20033;-61
2023/01/19 04:08:54;;;;;;;9.65;7.47;;;9.40;88.40;;;;;;5049888;28;20326;-62
2023/01/19 04:11:20;;;;;;;14.30;7.90;;;9.30;88.10;;;;;;5060946;28;20044;-61
2023/01/19 04:13:45;;;;;;;13.38;7.75;;;9.20;88.00;;;;;;5059711;28;20037;-61
2023/01/19 04:16:11;;;;;;;13.68;8.50;;;9.20;88.10;;;;;;5055796;28;20040;-55
2023/01/19 04:18:37;;;;;;;13.20;8.88;;;9.10;87.90;;;;;;5061088;28;20025;-57
2023/01/19 04:21:05;;;;;;;9.30;7.53;;;9.10;88.50;;;;;;5061010;28;20765;-56
2023/01/19 04:23:31;;;;;;;15.75;8.65;;;9.00;89.10;;;;;;5058246;28;20041;-58
2023/01/19 04:25:57;;;;;;;14.02;8.85;;;9.00;89.70;;;;;;5046116;28;20074;-58
2023/01/19 04:28:23;;;;;;;17.83;9.52;;;8.90;90.10;;;;;;5051029;28;20095;-58
2023/01/19 04:30:51;;;;;;;10.68;7.60;;;8.90;90.10;;;;;;5042483;28;20080;-57
2023/01/19 04:33:17;;;;;;;15.40;7.40;;;8.90;90.10;;;;;;5050122;28;20028;-58
2023/01/19 04:35:44;;;;;;;13.48;8.18;;;8.90;90.10;;;;;;5042925;28;20301;-58
2023/01/19 04:38:10;;;;;;;13.35;7.10;;;8.90;90.30;;;;;;5051731;28;20044;-57
2023/01/19 04:40:36;;;;;;;9.48;5.53;;;8.80;90.50;;;;;;5052034;28;20033;-57
2023/01/19 04:43:01;;;;;;;6.55;4.97;;;8.80;90.70;;;;;;5067731;28;20040;-57
2023/01/19 04:45:27;;;;;;;6.68;4.85;;;8.80;90.40;;;;;;5048721;28;20484;-58
2023/01/19 04:47:53;;;;;;;6.75;4.97;;;8.70;90.60;;;;;;5051039;28;20032;-57
2023/01/19 04:50:18;;;;;;;7.03;4.68;;;8.70;90.80;;;;;;5056040;28;20036;-57
2023/01/19 04:52:45;;;;;;;6.55;4.60;;;8.70;90.90;;;;;;5054219;28;20037;-56
2023/01/19 04:55:11;;;;;;;6.57;4.38;;;8.70;90.80;;;;;;5064093;28;20036;-57
2023/01/19 04:57:37;;;;;;;9.55;4.97;;;8.70;90.60;;;;;;5060941;28;20036;-58
2023/01/19 05:00:07;;;;;;;9.40;5.07;;;8.70;90.50;;;;;;5058191;28;20406;-58
2023/01/19 05:02:33;;;;;;;8.23;5.13;;;8.60;90.40;;;;;;5055550;28;20159;-58
2023/01/19 05:04:59;;;;;;;8.98;6.03;;;8.60;90.50;;;;;;5058662;28;20072;-58
2023/01/19 05:07:25;;;;;;;9.82;5.72;;;8.50;90.50;;;;;;5054167;28;20079;-58
2023/01/19 05:09:50;;;;;;;10.23;6.00;;;8.50;90.70;;;;;;5042778;28;20790;-57
2023/01/19 05:12:16;;;;;;;11.45;6.28;;;8.50;90.70;;;;;;5040262;28;20091;-56
2023/01/19 05:14:42;;;;;;;14.43;6.13;;;8.40;90.70;;;;;;5059848;28;20109;-58
2023/01/19 05:17:08;;;;;;;10.65;6.72;;;8.30;90.80;;;;;;5042152;28;20438;-57
2023/01/19 05:19:34;;;;;;;9.27;6.15;;;8.30;91.00;;;;;;5044175;28;20082;-57
2023/01/19 05:22:02;;;;;;;9.15;6.25;;;8.30;91.40;;;;;;5039608;28;20030;-58
2023/01/19 05:24:28;;;;;;;10.20;6.78;;;8.30;91.70;;;;;;5033768;28;20136;-58
2023/01/19 05:26:54;;;;;;;14.00;7.57;;;8.30;91.80;;;;;;5048078;28;20030;-58
2023/01/19 05:29:20;;;;;;;14.18;8.30;;;8.30;92.20;;;;;;5039540;28;20030;-59
2023/01/19 05:31:46;;;;;;;13.13;8.02;;;8.30;92.80;;;;;;5050960;28;20037;-55
2023/01/19 05:34:13;;;;;;;14.52;8.20;;;8.40;93.40;;;;;;5049378;28;20470;-56
2023/01/19 05:36:39;;;;;;;12.20;7.95;;;8.50;93.70;;;;;;5051752;28;20574;-57
2023/01/19 05:39:05;;;;;;;15.65;9.20;;;8.60;94.00;;;;;;5052758;28;20045;-58
2023/01/19 05:41:31;;;;;;;17.00;9.90;;;8.70;94.00;;;;;;5044433;28;20043;-60
2023/01/19 05:43:56;;;;;;;11.65;7.30;;;8.70;93.90;;;;;;5052625;28;20059;-58
2023/01/19 05:46:23;;;;;;;7.78;5.57;;;8.70;93.70;;;;;;5051015;28;20394;-58
2023/01/19 05:48:49;;;;;;;7.00;5.20;;;8.80;92.90;;;;;;5041765;28;20061;-58
2023/01/19 05:51:14;;;;;;;5.90;4.30;;;8.70;92.10;;;;;;5044615;28;20068;-58
2023/01/19 05:53:40;;;;;;;8.20;5.70;;;8.70;91.70;;;;;;5044504;28;20021;-59
2023/01/19 05:56:08;;;;;;;15.88;8.90;;;8.60;91.70;;;;;;5045953;28;20384;-56
2023/01/19 05:58:34;;;;;;;13.13;8.10;;;8.50;92.40;;;;;;5043505;28;20088;-57
2023/01/19 06:01:05;;;;;;;17.08;9.27;;;8.60;93.40;;;;;;5039451;28;20032;-57
2023/01/19 06:03:32;;;;;;;14.60;9.63;;;8.60;93.90;;;;;;5036751;28;20029;-59
2023/01/19 06:05:58;;;;;;;12.63;7.68;;;8.70;94.20;;;;;;5043021;28;20041;-57
2023/01/19 06:08:24;;;;;;;13.35;9.02;;;8.80;94.40;;;;;;5043814;28;20056;-60
2023/01/19 06:10:49;;;;;;;13.45;9.07;;;8.90;94.40;;;;;;5040252;28;20476;-57
2023/01/19 06:13:16;;;;;;;10.52;6.82;;;9.00;94.30;;;;;;5039879;28;20027;-58
2023/01/19 06:15:42;;;;;;;10.63;6.65;;;9.10;94.30;;;;;;5050869;28;20032;-59
2023/01/19 06:18:08;;;;;;;13.23;8.02;;;9.10;94.30;;;;;;5042833;28;20024;-58
2023/01/19 06:20:34;;;;;;;10.45;7.00;;;9.20;94.30;;;;;;5045126;28;21353;-59
2023/01/19 06:23:00;;;;;;;13.13;7.68;;;9.20;94.30;;;;;;5054945;28;20097;-59
2023/01/19 06:25:26;;;;;;;9.80;6.95;;;9.30;94.40;;;;;;5044743;28;20909;-58
2023/01/19 06:27:52;;;;;;;12.27;7.43;;;9.30;94.30;;;;;;5036631;28;20029;-60
2023/01/19 06:30:18;;;;;;;9.40;6.80;;;9.40;94.40;;;;;;5035835;28;20034;-58
2023/01/19 06:32:43;;;;;;;14.35;7.65;;;9.40;94.40;;;;;;5029426;28;20059;-58
2023/01/19 06:35:09;;;;;;;12.98;7.20;;;9.40;94.10;;;;;;5029515;28;20131;-59
2023/01/19 06:37:35;;;;;;;15.00;7.13;;;9.40;92.90;;;;;;5048206;28;20040;-59
2023/01/19 06:40:01;;;;;;;6.53;4.97;;;9.30;92.40;;;;;;5024712;28;20037;-59
2023/01/19 06:42:27;;;;;;;10.38;5.57;;;9.20;92.00;;;;;;5032823;28;20029;-61
2023/01/19 06:44:52;;;;;;;7.20;5.38;;;9.10;92.00;;;;;;5026953;28;20080;-61
2023/01/19 06:47:18;;;;;;;10.23;5.68;;;8.90;91.80;;;;;;5028650;28;20490;-61
2023/01/19 06:49:44;;;;;;;7.78;4.88;;;8.80;91.80;;;;;;5023712;28;20041;-57
2023/01/19 06:52:11;;;;;;;6.60;4.72;;;8.70;92.00;;;;;;5029679;28;20060;-59
2023/01/19 06:54:36;;;;;;;7.47;4.88;;;8.60;92.30;;;;;;5027540;28;20640;-62
2023/01/19 06:57:03;;;;;;;6.47;5.10;;;8.50;92.60;;;;;;5032015;28;20126;-63
2023/01/19 06:59:28;;;;;;;7.82;4.82;;;8.40;92.70;;;;;;5023655;28;20118;-59
2023/01/19 07:01:55;;;;;;;8.93;4.65;;;8.30;92.50;;;;;;5029353;28;20095;-61
2023/01/19 07:04:21;;;;;;;7.93;4.95;;;8.30;92.50;;;;;;5027882;28;20037;-60
2023/01/19 07:06:46;;;;;;;8.02;4.85;;;8.20;92.40;;;;;;5030948;28;20685;-56
2023/01/19 07:09:12;;;;;;;5.55;4.53;;;8.00;92.20;;;;;;5032316;28;20239;-59
2023/01/19 07:11:38;;;;;;;6.15;5.13;;;8.00;92.40;;;;;;5029403;28;20362;-58
2023/01/19 07:14:04;;;;;;;7.60;4.63;;;7.90;92.40;;;;;;5035192;28;20032;-60
2023/01/19 07:16:30;;;;;;;6.55;5.18;;;7.80;92.50;;;;;;5031753;28;20312;-56
2023/01/19 07:18:56;;;;;;;8.13;5.40;;;7.70;92.50;;;;;;5035355;28;21100;-60
2023/01/19 07:21:21;;;;;;;7.60;5.45;;;7.70;92.50;;;;;;5038121;28;20086;-60
2023/01/19 07:23:51;;;;;;;8.00;5.32;;;7.60;93.00;;;;;;5037101;28;20036;-61
2023/01/19 07:26:19;;;;;;;7.93;5.13;;;7.70;93.50;;;;;;5028853;28;20033;-60
2023/01/19 07:28:48;;;;;;;5.72;4.53;;;7.70;93.70;;;;;;5028197;28;20033;-62
2023/01/19 07:31:15;;;;;;;8.57;5.00;;;7.70;94.00;;;;;;5026165;28;20042;-59
2023/01/19 07:33:40;;;;;;;8.80;5.60;;;7.80;94.30;;;;;;5023080;28;20034;-54
2023/01/19 07:36:07;;;;;;;12.32;6.53;;;7.90;94.80;;;;;;5030410;28;20030;-60
2023/01/19 07:38:33;;;;;;;11.05;6.07;;;8.10;95.40;;;;;;5019072;28;20025;-58
2023/01/19 07:41:06;;;;;;;10.63;7.25;;;8.20;96.10;;;;;;5021785;28;20546;-57
2023/01/19 07:43:32;;;;;;;9.45;6.47;;;8.40;96.60;;;;;;5025263;28;20036;-59
2023/01/19 07:46:00;;;;;;;9.98;6.30;;;8.60;97.00;;;;;;5024420;28;20032;-61
2023/01/19 07:48:26;;;;;;;10.05;6.85;;;8.80;97.20;;;;;;5018180;28;20025;-58
2023/01/19 07:50:52;;;;;;;12.32;7.63;;;9.00;97.20;;;;;;5022451;28;20416;-58
2023/01/19 07:53:18;;;;;;;11.18;7.35;;;9.20;97.20;;;;;;5029734;28;20029;-58
2023/01/19 07:55:44;;;;;;;9.38;6.80;;;9.40;97.20;;;;;;5021369;28;21227;-58
2023/01/19 07:58:10;;;;;;;12.00;7.05;;;9.50;97.00;;;;;;5033271;28;20037;-59
2023/01/19 08:00:37;;;;;;;10.55;6.78;;;9.70;96.90;;;;;;5032229;28;20103;-60
2023/01/19 08:03:05;;;;;;;8.38;5.78;;;9.80;96.70;;;;;;5022216;28;20032;-56
2023/01/19 08:05:32;;;;;;;8.57;5.15;;;9.90;96.60;;;;;;5027373;28;20039;-61
2023/01/19 08:07:59;;;;;;;8.65;5.47;;;10.10;96.60;;;;;;5023310;28;20095;-58
2023/01/19 08:10:26;;;;;;;8.98;5.97;;;10.20;96.70;;;;;;5024605;28;20040;-59
2023/01/19 08:12:53;;;;;;;13.05;6.07;;;10.30;96.60;;;;;;5028549;28;20029;-57
2023/01/19 08:15:21;;;;;;;7.85;5.28;;;10.50;96.90;;;;;;5012886;28;21549;-58
2023/01/19 08:17:56;;;;;;;12.55;5.30;;;10.60;96.60;;;;;;5016106;28;21170;-58
2023/01/19 08:20:22;;;;;;;8.93;5.50;;;10.70;96.40;;;;;;5021705;28;20032;-59
2023/01/19 08:22:48;;;;;;;11.40;5.68;;;10.80;96.40;;;;;;5016438;28;20037;-57
2023/01/19 08:25:14;;;;;;;12.63;5.78;;;11.00;96.30;;;;;;5023433;28;20026;-56
2023/01/19 08:27:40;;;;;;;13.50;6.30;;;11.10;96.10;;;;;;5010819;28;20075;-56
2023/01/19 08:30:06;;;;;;;11.90;5.95;;;11.20;95.90;;;;;;5016175;28;20131;-58
2023/01/19 08:32:32;;;;;;;9.40;5.78;;;11.30;95.70;;;;;;5021477;28;20033;-62
2023/01/19 08:34:57;;;;;;;14.18;5.43;;;11.40;95.60;;;;;;5024255;28;20067;-58
2023/01/19 08:37:23;;;;;;;12.55;6.20;;;11.50;95.40;;;;;;5021449;28;20021;-57
2023/01/19 08:39:49;;;;;;;10.68;5.70;;;11.50;95.10;;;;;;5016748;28;20029;-61
2023/01/19 08:42:15;;;;;;;13.80;5.90;;;11.60;95.00;;;;;;5027377;28;20443;-58
2023/01/19 08:44:41;;;;;;;9.48;5.00;;;11.70;94.90;;;;;;5026606;28;20053;-57
2023/01/19 08:47:07;;;;;;;15.50;5.95;;;11.80;94.80;;;;;;5025213;28;20037;-57
2023/01/19 08:49:34;;;;;;;8.18;5.22;;;11.90;94.70;;;;;;5016979;28;20040;-57
2023/01/19 08:52:01;;;;;;;10.48;6.28;;;12.00;94.60;;;;;;5033486;28;20124;-59
2023/01/19 08:54:27;;;;;;;12.38;5.80;;;12.00;94.40;;;;;;5015009;28;20036;-56
2023/01/19 08:56:53;;;;;;;11.75;5.55;;;12.10;94.20;;;;;;5030270;28;20130;-56
2023/01/19 08:59:19;;;;;;;8.70;4.97;;;12.20;94.00;;;;;;5020259;28;20100;-60
2023/01/19 09:01:44;;;;;;;12.90;6.22;;;12.30;93.80;;;;;;5017437;28;20037;-57
2023/01/19 09:04:10;;;;;;;11.48;5.28;;;12.30;93.50;;;;;;5027447;28;20034;-59
2023/01/19 09:06:36;;;;;;;10.45;5.07;;;12.40;93.30;;;;;;5018312;28;20530;-59
2023/01/19 09:09:02;;;;;;;9.63;5.45;;;12.50;93.00;;;;;;5013319;28;20458;-57
2023/01/19 09:11:28;;;;;;;10.68;5.32;;;12.50;92.80;;;;;;5008225;28;20041;-57
2023/01/19 09:13:53;;;;;;;12.23;5.38;;;12.60;92.60;;;;;;5012032;28;20029;-59
2023/01/19 09:16:19;;;;;;;8.38;5.03;;;12.60;92.40;;;;;;5015713;28;20032;-58
2023/01/19 09:18:45;;;;;;;10.32;5.40;;;12.60;92.30;;;;;;5016150;28;20103;-57
2023/01/19 09:21:11;;;;;;;9.57;4.72;;;12.60;92.20;;;;;;5021583;28;20037;-59
2023/01/19 09:23:36;;;;;;;9.38;4.80;;;12.70;92.00;;;;;;5023038;28;20064;-57
2023/01/19 09:26:04;;;;;;;9.63;5.15;;;12.80;91.80;;;;;;5027575;28;20025;-59
2023/01/19 09:28:30;;;;;;;13.23;5.55;;;12.80;91.50;;;;;;5012790;28;20102;-58
2023/01/19 09:30:56;;;;;;;10.32;5.50;;;12.80;91.50;;;;;;5008413;28;20816;-59
2023/01/19 09:33:23;;;;;;;9.25;5.63;;;12.80;91.30;;;;;;5010540;28;20134;-58
2023/01/19 09:35:50;;;;;;;12.65;6.25;;;12.90;91.20;;;;;;5010832;28;20021;-57
2023/01/19 09:38:17;;;;;;;10.40;6.47;;;12.90;91.00;;;;;;5015391;28;20033;-57
2023/01/19 09:40:48;;;;;;;11.00;5.85;;;12.90;90.90;;;;;;5011777;28;20539;-59
2023/01/19 09:43:20;;;;;;;13.27;6.38;;;12.90;90.70;;;;;;5024155;28;20049;-60
2023/01/19 09:45:58;;;;;;;11.73;5.60;;;12.90;90.60;;;;;;5012628;28;20043;-58
2023/01/19 09:48:33;;;;;;;8.75;5.05;;;12.90;90.50;;;;;;5020447;28;20039;-57
2023/01/19 09:51:03;;;;;;;12.77;6.22;;;12.90;90.50;;;;;;5013725;28;20738;-61
2023/01/19 09:53:52;;;;;;;14.98;6.68;;;13.00;90.70;;;;;;5020561;28;20036;-61
2023/01/19 09:56:21;;;;;;;11.80;6.10;;;12.90;90.10;;;;;;5026380;28;20607;-59
2023/01/19 09:58:49;;;;;;;11.88;5.38;;;12.90;90.00;;;;;;5025399;28;20108;-58
2023/01/19 10:01:36;;;;;;;8.60;5.35;;;12.90;90.00;;;;;;5009453;28;20102;-61
2023/01/19 10:04:17;;;;;;;9.10;4.70;;;12.90;90.00;;;;;;5019565;28;20171;-60
2023/01/19 10:06:43;;;;;;;8.73;4.97;;;12.90;89.80;;;;;;5020323;28;20037;-58
2023/01/19 10:09:19;;;;;;;9.88;5.40;;;12.90;90.00;;;;;;5007517;28;21115;-59
2023/01/19 10:11:53;;;;;;;9.40;5.18;;;12.90;89.80;;;;;;5014509;28;20036;-59
2023/01/19 10:14:34;;;;;;;18.70;10.10;;;12.90;89.70;;;;;;5007168;28;20470;-62
2023/01/19 10:17:17;;;;;;;17.30;8.40;;;12.90;89.60;;;;;;5017896;28;20051;-59
2023/01/19 10:19:48;;;;;;;14.65;7.00;;;12.90;89.50;;;;;;5015147;28;20057;-58
2023/01/19 10:22:23;;;;;;;15.38;7.13;;;12.90;89.50;;;;;;5017949;28;20496;-58
2023/01/19 10:24:54;;;;;;;10.35;5.13;;;12.90;89.20;;;;;;5015198;28;20071;-58
2023/01/19 10:27:27;;;;;;;9.80;5.10;;;12.90;89.50;;;;;;5008385;28;20029;-60
2023/01/19 10:29:53;;;;;;;9.25;5.13;;;12.90;89.50;;;;;;5019422;28;20131;-63
2023/01/19 10:32:29;;;;;;;12.45;5.05;;;13.00;89.30;;;;;;5016219;28;20053;-62
2023/01/19 10:34:57;;;;;;;8.80;5.07;;;13.00;89.10;;;;;;5022784;28;20028;-61
2023/01/19 10:37:38;;;;;;;9.30;4.65;;;13.00;89.00;;;;;;5023533;28;20029;-64
2023/01/19 10:40:09;;;;;;;8.82;5.32;;;13.00;89.00;;;;;;5014034;28;20029;-60
2023/01/19 10:42:37;;;;;;;10.00;4.70;;;13.00;88.90;;;;;;5002888;28;20492;-59
2023/01/19 10:45:24;;;;;;;9.48;5.38;;;13.00;88.80;;;;;;4994226;28;20126;-59
2023/01/19 10:47:52;;;;;;;12.80;5.43;;;13.10;89.00;;;;;;4999678;28;20039;-65
2023/01/19 10:50:33;;;;;;;9.25;4.53;;;13.20;89.00;;;;;;5003485;28;20040;-56
2023/01/19 10:53:02;;;;;;;8.30;4.57;;;13.10;88.50;;;;;;4995878;28;20786;-57
2023/01/19 10:55:38;;;;;;;6.95;4.47;;;13.20;88.30;;;;;;5005641;28;20037;-54
2023/01/19 10:58:05;;;;;;;8.15;4.93;;;13.20;88.10;;;;;;5017295;28;21056;-57
2023/01/19 11:00:41;;;;;;;6.55;4.55;;;13.20;87.90;;;;;;5014542;28;20080;-55
2023/01/19 11:03:29;;;;;;;7.65;4.70;;;13.20;87.80;;;;;;5003022;28;20070;-57
2023/01/19 11:06:15;;;;;;;8.13;4.93;;;13.20;87.80;;;;;;4996373;28;20034;-57
2023/01/19 11:08:42;;;;;;;9.10;5.20;;;13.20;87.70;;;;;;5023224;28;20168;-55
2023/01/19 11:11:11;;;;;;;9.38;5.25;;;13.20;87.70;;;;;;5010683;28;23016;-56
2023/01/19 11:13:38;;;;;;;7.88;4.75;;;13.20;87.60;;;;;;5004836;28;20041;-56
2023/01/19 11:16:27;;;;;;;8.82;5.35;;;13.20;87.80;;;;;;5003291;28;20070;-60
2023/01/19 11:18:55;;;;;;;6.00;4.50;;;13.30;87.90;;;;;;5010289;28;20041;-59
2023/01/19 11:21:26;;;;;;;12.68;5.40;;;13.30;87.90;;;;;;5007524;28;20239;-58
2023/01/19 11:23:57;;;;;;;7.63;5.03;;;13.40;87.60;;;;;;5002802;28;20136;-55
2023/01/19 11:26:34;;;;;;;7.35;5.03;;;13.40;87.30;;;;;;4996148;28;20179;-58
2023/01/19 11:29:02;;;;;;;9.40;4.88;;;13.50;87.40;;;;;;5005579;28;20029;-59
2023/01/19 11:31:28;;;;;;;10.43;4.53;;;13.40;87.30;;;;;;5016220;28;20037;-57
2023/01/19 11:33:56;;;;;;;6.88;4.35;;;13.50;87.30;;;;;;5013091;28;20040;-58
2023/01/19 11:36:24;;;;;;;6.50;4.60;;;13.50;87.20;;;;;;4991462;28;20032;-56
2023/01/19 11:38:56;;;;;;;10.82;4.93;;;13.50;87.20;;;;;;5003470;28;20048;-57
2023/01/19 11:41:32;;;;;;;9.70;4.55;;;13.60;86.90;;;;;;5022296;28;20043;-58
2023/01/19 11:44:10;;;;;;;9.25;5.20;;;13.60;86.70;;;;;;5012838;28;20054;-57
2023/01/19 11:46:40;;;;;;;7.43;4.38;;;13.70;86.70;;;;;;5012890;28;20036;-56
2023/01/19 11:49:18;;;;;;;8.57;4.40;;;13.70;86.60;;;;;;5023230;28;20076;-57
2023/01/19 11:51:55;;;;;;;6.68;4.38;;;13.70;86.60;;;;;;5019501;28;20111;-56
2023/01/19 11:54:28;;;;;;;7.63;4.20;;;13.80;86.60;;;;;;5015639;28;25167;-56
2023/01/19 11:56:57;;;;;;;6.25;4.18;;;13.80;86.60;;;;;;5027357;28;21263;-56
2023/01/19 11:59:26;;;;;;;9.45;4.38;;;13.90;86.40;;;;;;5025515;28;20039;-58
2023/01/19 12:01:56;;;;;;;6.53;4.40;;;13.90;86.30;;;;;;5014359;28;20088;-55
2023/01/19 12:04:29;;;;;;;8.10;4.47;;;13.90;86.00;;;;;;5030803;28;20148;-57
2023/01/19 12:06:57;;;;;;;8.07;4.13;;;14.00;85.90;;;;;;5023418;28;20029;-56
2023/01/19 12:09:27;;;;;;;10.25;4.45;;;14.00;85.70;;;;;;5012199;28;20044;-56
2023/01/19 12:12:06;;;;;;;7.68;4.18;;;14.10;85.50;;;;;;4997383;28;20029;-55
2023/01/19 12:14:57;;;;;;;6.05;4.32;;;14.10;85.40;;;;;;5014491;28;20044;-58
2023/01/19 12:17:29;;;;;;;7.30;4.30;;;14.10;85.40;;;;;;5018703;28;20163;-56
2023/01/19 12:20:18;;;;;;;9.88;5.05;;;14.10;85.30;;;;;;5018440;28;20393;-57
2023/01/19 12:22:50;;;;;;;7.72;4.50;;;14.20;85.10;;;;;;4995475;28;20045;-56
2023/01/19 12:25:46;;;;;;;6.40;3.95;;;14.10;84.90;;;;;;5009485;28;20043;-57
2023/01/19 12:28:14;;;;;;;7.38;4.30;;;14.20;84.80;;;;;;5016074;28;20033;-57
2023/01/19 12:30:40;;;;;;;8.25;4.05;;;14.20;84.80;;;;;;5014893;28;20128;-58
2023/01/19 12:33:25;;;;;;;11.02;4.70;;;14.20;84.80;;;;;;5026440;28;20058;-55
2023/01/19 12:35:59;;;;;;;7.38;4.20;;;14.20;84.50;;;;;;5025194;28;20041;-52
2023/01/19 12:39:00;;;;;;;8.05;4.30;;;14.20;84.40;;;;;;5022210;28;20037;-54
2023/01/19 12:41:31;;;;;;;10.43;4.47;;;14.20;84.40;;;;;;5018151;28;20125;-53
2023/01/19 12:44:08;;;;;;;6.78;3.92;;;14.20;84.40;;;;;;5011992;28;20046;-55
2023/01/19 12:46:35;;;;;;;6.95;3.92;;;14.20;84.30;;;;;;5021895;28;20041;-55
2023/01/19 12:49:05;;;;;;;6.40;3.90;;;14.20;84.20;;;;;;5018983;28;20618;-56
2023/01/19 12:51:31;;;;;;;8.73;4.63;;;14.30;84.10;;;;;;5023526;28;20033;-57
2023/01/19 12:54:00;;;;;;;6.72;3.90;;;14.30;84.10;;;;;;5021988;28;20030;-56
2023/01/19 12:56:32;;;;;;;6.85;4.47;;;14.30;84.00;;;;;;5022468;28;20033;-56
2023/01/19 12:58:59;;;;;;;7.28;3.63;;;14.30;83.90;;;;;;5014893;28;20395;-55
2023/01/19 13:01:25;;;;;;;5.75;4.03;;;14.30;83.90;;;;;;5011033;28;20041;-54
2023/01/19 13:04:07;;;;;;;4.78;3.70;;;14.30;83.80;;;;;;5017679;28;20029;-55
2023/01/19 13:06:48;;;;;;;6.85;4.00;;;14.30;83.80;;;;;;5029617;28;20025;-54